sensor_id;sensor_type;location;lat;lon;timestamp;P1;durP1;ratioP1;P2;durP2;ratioP2
55112;SDS011;41006;50.920;3.456;2022-07-15T00:00:05;10.68;;;4.82;;
55112;SDS011;41006;50.920;3.456;2022-07-15T00:01:37;11.77;;;4.43;;
55112;SDS011;41006;50.920;3.456;2022-07-15T00:03:06;8.43;;;4.00;;
55112;SDS011;41006;50.920;3.456;2022-07-15T00:04:40;11.02;;;4.15;;
55112;SDS011;41006;50.920;3.456;2022-07-15T00:06:09;11.10;;;4.95;;
55112;SDS011;41006;50.920;3.456;2022-07-15T00:07:40;9.85;;;4.53;;
55112;SDS011;41006;50.920;3.456;2022-07-15T00:09:11;8.40;;;4.18;;
55112;SDS011;41006;50.920;3.456;2022-07-15T00:10:46;9.55;;;4.65;;
55112;SDS011;41006;50.920;3.456;2022-07-15T00:12:15;11.43;;;4.90;;
55112;SDS011;41006;50.920;3.456;2022-07-15T00:13:46;8.32;;;4.43;;
55112;SDS011;41006;50.920;3.456;2022-07-15T00:15:19;7.93;;;4.38;;
55112;SDS011;41006;50.920;3.456;2022-07-15T00:16:52;13.20;;;5.60;;
55112;SDS011;41006;50.920;3.456;2022-07-15T00:18:21;15.13;;;4.60;;
55112;SDS011;41006;50.920;3.456;2022-07-15T00:19:55;14.00;;;4.93;;
55112;SDS011;41006;50.920;3.456;2022-07-15T00:21:26;8.32;;;4.55;;
55112;SDS011;41006;50.920;3.456;2022-07-15T00:22:56;12.07;;;5.18;;
55112;SDS011;41006;50.920;3.456;2022-07-15T00:24:25;10.95;;;4.43;;
55112;SDS011;41006;50.920;3.456;2022-07-15T00:25:54;8.68;;;4.65;;
55112;SDS011;41006;50.920;3.456;2022-07-15T00:27:23;7.60;;;4.63;;
55112;SDS011;41006;50.920;3.456;2022-07-15T00:28:54;11.45;;;4.63;;
55112;SDS011;41006;50.920;3.456;2022-07-15T00:30:30;10.68;;;5.43;;
55112;SDS011;41006;50.920;3.456;2022-07-15T00:32:02;10.30;;;4.13;;
55112;SDS011;41006;50.920;3.456;2022-07-15T00:33:31;10.13;;;4.60;;
55112;SDS011;41006;50.920;3.456;2022-07-15T00:35:02;7.93;;;4.30;;
55112;SDS011;41006;50.920;3.456;2022-07-15T00:36:31;13.25;;;5.05;;
55112;SDS011;41006;50.920;3.456;2022-07-15T00:38:03;11.02;;;4.28;;
55112;SDS011;41006;50.920;3.456;2022-07-15T00:39:35;7.15;;;4.20;;
55112;SDS011;41006;50.920;3.456;2022-07-15T00:41:09;6.50;;;4.32;;
55112;SDS011;41006;50.920;3.456;2022-07-15T00:42:38;11.02;;;4.93;;
55112;SDS011;41006;50.920;3.456;2022-07-15T00:44:07;16.45;;;5.93;;
55112;SDS011;41006;50.920;3.456;2022-07-15T00:45:39;8.82;;;4.68;;
55112;SDS011;41006;50.920;3.456;2022-07-15T00:47:08;10.30;;;4.50;;
55112;SDS011;41006;50.920;3.456;2022-07-15T00:48:39;9.02;;;4.82;;
55112;SDS011;41006;50.920;3.456;2022-07-15T00:50:11;11.07;;;4.97;;
55112;SDS011;41006;50.920;3.456;2022-07-15T00:51:41;9.03;;;4.63;;
55112;SDS011;41006;50.920;3.456;2022-07-15T00:53:16;8.38;;;4.45;;
55112;SDS011;41006;50.920;3.456;2022-07-15T00:54:46;11.20;;;4.53;;
55112;SDS011;41006;50.920;3.456;2022-07-15T00:56:20;11.80;;;4.60;;
55112;SDS011;41006;50.920;3.456;2022-07-15T00:57:58;10.52;;;4.82;;
55112;SDS011;41006;50.920;3.456;2022-07-15T00:59:31;10.57;;;5.15;;
55112;SDS011;41006;50.920;3.456;2022-07-15T01:01:05;15.65;;;4.70;;
55112;SDS011;41006;50.920;3.456;2022-07-15T01:02:39;13.80;;;4.90;;
55112;SDS011;41006;50.920;3.456;2022-07-15T01:04:11;9.63;;;5.25;;
55112;SDS011;41006;50.920;3.456;2022-07-15T01:05:43;11.73;;;5.35;;
55112;SDS011;41006;50.920;3.456;2022-07-15T01:07:13;10.18;;;4.47;;
55112;SDS011;41006;50.920;3.456;2022-07-15T01:08:42;7.90;;;4.75;;
55112;SDS011;41006;50.920;3.456;2022-07-15T01:10:12;11.75;;;5.13;;
55112;SDS011;41006;50.920;3.456;2022-07-15T01:11:41;8.32;;;4.72;;
55112;SDS011;41006;50.920;3.456;2022-07-15T01:13:10;13.00;;;5.78;;
55112;SDS011;41006;50.920;3.456;2022-07-15T01:14:44;9.77;;;4.43;;
55112;SDS011;41006;50.920;3.456;2022-07-15T01:16:15;12.05;;;5.18;;
55112;SDS011;41006;50.920;3.456;2022-07-15T01:17:46;12.85;;;5.57;;
55112;SDS011;41006;50.920;3.456;2022-07-15T01:19:15;12.02;;;4.82;;
55112;SDS011;41006;50.920;3.456;2022-07-15T01:20:44;11.93;;;5.03;;
55112;SDS011;41006;50.920;3.456;2022-07-15T01:22:16;11.57;;;4.90;;
55112;SDS011;41006;50.920;3.456;2022-07-15T01:23:52;8.70;;;4.80;;
55112;SDS011;41006;50.920;3.456;2022-07-15T01:25:24;10.55;;;4.57;;
55112;SDS011;41006;50.920;3.456;2022-07-15T01:26:56;11.32;;;4.60;;
55112;SDS011;41006;50.920;3.456;2022-07-15T01:28:27;7.53;;;4.20;;
55112;SDS011;41006;50.920;3.456;2022-07-15T01:29:59;9.48;;;4.95;;
55112;SDS011;41006;50.920;3.456;2022-07-15T01:31:30;8.85;;;4.82;;
55112;SDS011;41006;50.920;3.456;2022-07-15T01:32:59;11.70;;;5.75;;
55112;SDS011;41006;50.920;3.456;2022-07-15T01:34:28;7.53;;;4.75;;
55112;SDS011;41006;50.920;3.456;2022-07-15T01:35:58;11.18;;;5.30;;
55112;SDS011;41006;50.920;3.456;2022-07-15T01:37:30;8.38;;;4.75;;
55112;SDS011;41006;50.920;3.456;2022-07-15T01:39:01;13.20;;;5.88;;
55112;SDS011;41006;50.920;3.456;2022-07-15T01:40:33;11.85;;;5.50;;
55112;SDS011;41006;50.920;3.456;2022-07-15T01:42:04;9.05;;;5.43;;
55112;SDS011;41006;50.920;3.456;2022-07-15T01:43:35;10.23;;;5.22;;
55112;SDS011;41006;50.920;3.456;2022-07-15T01:45:07;10.77;;;5.63;;
55112;SDS011;41006;50.920;3.456;2022-07-15T01:46:38;7.10;;;4.90;;
55112;SDS011;41006;50.920;3.456;2022-07-15T01:48:17;10.30;;;5.85;;
55112;SDS011;41006;50.920;3.456;2022-07-15T01:49:51;10.05;;;5.35;;
55112;SDS011;41006;50.920;3.456;2022-07-15T01:51:20;10.57;;;5.40;;
55112;SDS011;41006;50.920;3.456;2022-07-15T01:52:49;10.27;;;5.15;;
55112;SDS011;41006;50.920;3.456;2022-07-15T01:54:18;9.63;;;5.35;;
55112;SDS011;41006;50.920;3.456;2022-07-15T01:55:51;8.90;;;4.95;;
55112;SDS011;41006;50.920;3.456;2022-07-15T01:57:23;7.75;;;5.35;;
55112;SDS011;41006;50.920;3.456;2022-07-15T01:58:55;10.93;;;4.43;;
55112;SDS011;41006;50.920;3.456;2022-07-15T02:00:26;6.80;;;5.35;;
55112;SDS011;41006;50.920;3.456;2022-07-15T02:01:56;9.85;;;5.47;;
55112;SDS011;41006;50.920;3.456;2022-07-15T02:03:25;10.35;;;5.50;;
55112;SDS011;41006;50.920;3.456;2022-07-15T02:04:54;12.27;;;4.55;;
55112;SDS011;41006;50.920;3.456;2022-07-15T02:06:23;14.15;;;4.95;;
55112;SDS011;41006;50.920;3.456;2022-07-15T02:07:55;11.60;;;5.07;;
55112;SDS011;41006;50.920;3.456;2022-07-15T02:09:26;12.32;;;5.68;;
55112;SDS011;41006;50.920;3.456;2022-07-15T02:10:55;11.30;;;5.43;;
55112;SDS011;41006;50.920;3.456;2022-07-15T02:12:28;13.52;;;5.35;;
55112;SDS011;41006;50.920;3.456;2022-07-15T02:13:57;10.95;;;4.97;;
55112;SDS011;41006;50.920;3.456;2022-07-15T02:15:31;8.48;;;5.13;;
55112;SDS011;41006;50.920;3.456;2022-07-15T02:17:01;11.85;;;5.43;;
55112;SDS011;41006;50.920;3.456;2022-07-15T02:18:31;11.05;;;5.38;;
55112;SDS011;41006;50.920;3.456;2022-07-15T02:19:59;10.40;;;4.95;;
55112;SDS011;41006;50.920;3.456;2022-07-15T02:21:28;9.88;;;5.30;;
55112;SDS011;41006;50.920;3.456;2022-07-15T02:23:00;9.48;;;5.30;;
55112;SDS011;41006;50.920;3.456;2022-07-15T02:24:29;11.40;;;6.10;;
55112;SDS011;41006;50.920;3.456;2022-07-15T02:26:00;10.50;;;5.85;;
55112;SDS011;41006;50.920;3.456;2022-07-15T02:27:32;11.80;;;6.03;;
55112;SDS011;41006;50.920;3.456;2022-07-15T02:29:03;12.13;;;5.70;;
55112;SDS011;41006;50.920;3.456;2022-07-15T02:30:38;10.75;;;5.93;;
55112;SDS011;41006;50.920;3.456;2022-07-15T02:32:07;14.27;;;5.72;;
55112;SDS011;41006;50.920;3.456;2022-07-15T02:33:37;10.90;;;5.60;;
55112;SDS011;41006;50.920;3.456;2022-07-15T02:35:09;15.40;;;6.63;;
55112;SDS011;41006;50.920;3.456;2022-07-15T02:36:38;10.48;;;6.10;;
55112;SDS011;41006;50.920;3.456;2022-07-15T02:38:10;8.05;;;5.38;;
55112;SDS011;41006;50.920;3.456;2022-07-15T02:39:39;11.27;;;5.90;;
55112;SDS011;41006;50.920;3.456;2022-07-15T02:41:08;11.25;;;5.15;;
55112;SDS011;41006;50.920;3.456;2022-07-15T02:42:52;7.88;;;5.47;;
55112;SDS011;41006;50.920;3.456;2022-07-15T02:44:26;10.65;;;5.65;;
55112;SDS011;41006;50.920;3.456;2022-07-15T02:45:56;10.85;;;5.38;;
55112;SDS011;41006;50.920;3.456;2022-07-15T02:47:28;9.73;;;5.72;;
55112;SDS011;41006;50.920;3.456;2022-07-15T02:48:57;11.20;;;5.53;;
55112;SDS011;41006;50.920;3.456;2022-07-15T02:50:27;13.77;;;6.35;;
55112;SDS011;41006;50.920;3.456;2022-07-15T02:51:58;12.32;;;6.47;;
55112;SDS011;41006;50.920;3.456;2022-07-15T02:53:28;8.73;;;5.13;;
55112;SDS011;41006;50.920;3.456;2022-07-15T02:54:57;11.50;;;5.15;;
55112;SDS011;41006;50.920;3.456;2022-07-15T02:56:31;9.93;;;5.55;;
55112;SDS011;41006;50.920;3.456;2022-07-15T02:58:00;13.32;;;6.00;;
55112;SDS011;41006;50.920;3.456;2022-07-15T02:59:31;13.88;;;5.88;;
55112;SDS011;41006;50.920;3.456;2022-07-15T03:01:00;9.85;;;5.63;;
55112;SDS011;41006;50.920;3.456;2022-07-15T03:02:29;10.90;;;5.22;;
55112;SDS011;41006;50.920;3.456;2022-07-15T03:04:02;9.88;;;5.05;;
55112;SDS011;41006;50.920;3.456;2022-07-15T03:05:34;9.05;;;5.35;;
55112;SDS011;41006;50.920;3.456;2022-07-15T03:07:03;11.05;;;5.60;;
55112;SDS011;41006;50.920;3.456;2022-07-15T03:08:35;8.40;;;4.88;;
55112;SDS011;41006;50.920;3.456;2022-07-15T03:10:05;10.63;;;5.70;;
55112;SDS011;41006;50.920;3.456;2022-07-15T03:11:39;12.32;;;5.35;;
55112;SDS011;41006;50.920;3.456;2022-07-15T03:13:09;11.63;;;6.53;;
55112;SDS011;41006;50.920;3.456;2022-07-15T03:14:39;9.93;;;5.22;;
55112;SDS011;41006;50.920;3.456;2022-07-15T03:16:08;10.50;;;5.13;;
55112;SDS011;41006;50.920;3.456;2022-07-15T03:17:37;9.90;;;5.05;;
55112;SDS011;41006;50.920;3.456;2022-07-15T03:19:14;11.55;;;5.38;;
55112;SDS011;41006;50.920;3.456;2022-07-15T03:20:48;8.85;;;5.45;;
55112;SDS011;41006;50.920;3.456;2022-07-15T03:22:19;10.38;;;5.75;;
55112;SDS011;41006;50.920;3.456;2022-07-15T03:23:48;14.65;;;5.68;;
55112;SDS011;41006;50.920;3.456;2022-07-15T03:25:18;13.68;;;6.70;;
55112;SDS011;41006;50.920;3.456;2022-07-15T03:26:49;12.40;;;5.43;;
55112;SDS011;41006;50.920;3.456;2022-07-15T03:28:18;10.45;;;5.72;;
55112;SDS011;41006;50.920;3.456;2022-07-15T03:29:47;9.23;;;5.43;;
55112;SDS011;41006;50.920;3.456;2022-07-15T03:31:18;12.35;;;5.47;;
55112;SDS011;41006;50.920;3.456;2022-07-15T03:32:50;9.85;;;5.20;;
55112;SDS011;41006;50.920;3.456;2022-07-15T03:34:21;9.70;;;4.90;;
55112;SDS011;41006;50.920;3.456;2022-07-15T03:35:50;9.48;;;5.80;;
55112;SDS011;41006;50.920;3.456;2022-07-15T03:37:19;13.63;;;6.15;;
55112;SDS011;41006;50.920;3.456;2022-07-15T03:38:48;15.15;;;6.13;;
55112;SDS011;41006;50.920;3.456;2022-07-15T03:40:17;13.50;;;6.35;;
55112;SDS011;41006;50.920;3.456;2022-07-15T03:41:48;10.68;;;5.72;;
55112;SDS011;41006;50.920;3.456;2022-07-15T03:43:19;13.93;;;6.43;;
55112;SDS011;41006;50.920;3.456;2022-07-15T03:44:50;10.88;;;5.68;;
55112;SDS011;41006;50.920;3.456;2022-07-15T03:46:19;11.52;;;5.90;;
55112;SDS011;41006;50.920;3.456;2022-07-15T03:47:48;9.20;;;4.95;;
55112;SDS011;41006;50.920;3.456;2022-07-15T03:49:17;10.13;;;6.15;;
55112;SDS011;41006;50.920;3.456;2022-07-15T03:50:49;12.10;;;5.35;;
55112;SDS011;41006;50.920;3.456;2022-07-15T03:52:21;10.32;;;5.95;;
55112;SDS011;41006;50.920;3.456;2022-07-15T03:53:52;11.85;;;6.50;;
55112;SDS011;41006;50.920;3.456;2022-07-15T03:55:24;10.05;;;5.90;;
55112;SDS011;41006;50.920;3.456;2022-07-15T03:56:55;11.35;;;5.97;;
55112;SDS011;41006;50.920;3.456;2022-07-15T03:58:28;11.88;;;6.13;;
55112;SDS011;41006;50.920;3.456;2022-07-15T03:59:59;8.80;;;5.63;;
55112;SDS011;41006;50.920;3.456;2022-07-15T04:01:30;17.00;;;7.45;;
55112;SDS011;41006;50.920;3.456;2022-07-15T04:03:01;12.13;;;5.45;;
55112;SDS011;41006;50.920;3.456;2022-07-15T04:04:30;10.90;;;5.97;;
55112;SDS011;41006;50.920;3.456;2022-07-15T04:06:02;12.50;;;5.88;;
55112;SDS011;41006;50.920;3.456;2022-07-15T04:07:31;15.48;;;6.22;;
55112;SDS011;41006;50.920;3.456;2022-07-15T04:09:03;10.38;;;5.90;;
55112;SDS011;41006;50.920;3.456;2022-07-15T04:10:32;11.30;;;6.50;;
55112;SDS011;41006;50.920;3.456;2022-07-15T04:12:04;12.00;;;5.55;;
55112;SDS011;41006;50.920;3.456;2022-07-15T04:13:33;12.10;;;5.95;;
55112;SDS011;41006;50.920;3.456;2022-07-15T04:15:02;12.30;;;6.55;;
55112;SDS011;41006;50.920;3.456;2022-07-15T04:16:31;10.68;;;5.97;;
55112;SDS011;41006;50.920;3.456;2022-07-15T04:17:59;8.50;;;5.78;;
55112;SDS011;41006;50.920;3.456;2022-07-15T04:19:29;13.38;;;6.45;;
55112;SDS011;41006;50.920;3.456;2022-07-15T04:20:58;11.30;;;6.32;;
55112;SDS011;41006;50.920;3.456;2022-07-15T04:22:31;10.35;;;6.20;;
55112;SDS011;41006;50.920;3.456;2022-07-15T04:24:11;15.15;;;6.63;;
55112;SDS011;41006;50.920;3.456;2022-07-15T04:25:43;12.85;;;6.60;;
55112;SDS011;41006;50.920;3.456;2022-07-15T04:27:13;12.52;;;6.63;;
55112;SDS011;41006;50.920;3.456;2022-07-15T04:28:44;9.52;;;5.63;;
55112;SDS011;41006;50.920;3.456;2022-07-15T04:30:16;13.65;;;6.80;;
55112;SDS011;41006;50.920;3.456;2022-07-15T04:31:44;10.38;;;6.82;;
55112;SDS011;41006;50.920;3.456;2022-07-15T04:33:16;11.40;;;6.22;;
55112;SDS011;41006;50.920;3.456;2022-07-15T04:34:45;12.30;;;6.28;;
55112;SDS011;41006;50.920;3.456;2022-07-15T04:36:18;12.43;;;5.47;;
55112;SDS011;41006;50.920;3.456;2022-07-15T04:37:46;10.70;;;6.53;;
55112;SDS011;41006;50.920;3.456;2022-07-15T04:39:18;10.25;;;6.10;;
55112;SDS011;41006;50.920;3.456;2022-07-15T04:40:49;9.88;;;5.82;;
55112;SDS011;41006;50.920;3.456;2022-07-15T04:42:21;9.98;;;6.60;;
55112;SDS011;41006;50.920;3.456;2022-07-15T04:43:52;11.85;;;6.55;;
55112;SDS011;41006;50.920;3.456;2022-07-15T04:45:21;8.57;;;6.20;;
55112;SDS011;41006;50.920;3.456;2022-07-15T04:46:53;12.07;;;6.97;;
55112;SDS011;41006;50.920;3.456;2022-07-15T04:48:27;8.63;;;6.00;;
55112;SDS011;41006;50.920;3.456;2022-07-15T04:50:16;11.27;;;6.13;;
55112;SDS011;41006;50.920;3.456;2022-07-15T04:51:48;10.13;;;5.75;;
55112;SDS011;41006;50.920;3.456;2022-07-15T04:53:18;11.75;;;5.95;;
55112;SDS011;41006;50.920;3.456;2022-07-15T04:54:53;9.95;;;5.78;;
55112;SDS011;41006;50.920;3.456;2022-07-15T04:56:24;9.88;;;5.80;;
55112;SDS011;41006;50.920;3.456;2022-07-15T04:57:53;14.05;;;6.35;;
55112;SDS011;41006;50.920;3.456;2022-07-15T04:59:22;9.27;;;6.22;;
55112;SDS011;41006;50.920;3.456;2022-07-15T05:00:53;11.20;;;6.00;;
55112;SDS011;41006;50.920;3.456;2022-07-15T05:02:24;13.48;;;5.88;;
55112;SDS011;41006;50.920;3.456;2022-07-15T05:03:59;12.23;;;6.75;;
55112;SDS011;41006;50.920;3.456;2022-07-15T05:05:30;12.43;;;6.45;;
55112;SDS011;41006;50.920;3.456;2022-07-15T05:07:01;17.38;;;6.60;;
55112;SDS011;41006;50.920;3.456;2022-07-15T05:08:32;10.30;;;6.40;;
55112;SDS011;41006;50.920;3.456;2022-07-15T05:10:01;12.65;;;6.10;;
55112;SDS011;41006;50.920;3.456;2022-07-15T05:11:32;12.23;;;5.97;;
55112;SDS011;41006;50.920;3.456;2022-07-15T05:13:02;12.70;;;6.40;;
55112;SDS011;41006;50.920;3.456;2022-07-15T05:14:31;15.23;;;6.72;;
55112;SDS011;41006;50.920;3.456;2022-07-15T05:16:00;11.77;;;6.82;;
55112;SDS011;41006;50.920;3.456;2022-07-15T05:17:33;11.80;;;6.75;;
55112;SDS011;41006;50.920;3.456;2022-07-15T05:19:08;11.98;;;6.72;;
55112;SDS011;41006;50.920;3.456;2022-07-15T05:20:40;14.80;;;7.60;;
55112;SDS011;41006;50.920;3.456;2022-07-15T05:22:11;18.90;;;8.05;;
55112;SDS011;41006;50.920;3.456;2022-07-15T05:23:47;15.60;;;7.60;;
55112;SDS011;41006;50.920;3.456;2022-07-15T05:25:15;10.65;;;7.35;;
55112;SDS011;41006;50.920;3.456;2022-07-15T05:26:48;15.40;;;8.35;;
55112;SDS011;41006;50.920;3.456;2022-07-15T05:28:18;12.07;;;8.02;;
55112;SDS011;41006;50.920;3.456;2022-07-15T05:29:47;14.70;;;8.55;;
55112;SDS011;41006;50.920;3.456;2022-07-15T05:31:16;16.15;;;9.20;;
55112;SDS011;41006;50.920;3.456;2022-07-15T05:32:44;21.90;;;9.80;;
55112;SDS011;41006;50.920;3.456;2022-07-15T05:34:14;18.25;;;10.13;;
55112;SDS011;41006;50.920;3.456;2022-07-15T05:35:47;18.10;;;10.40;;
55112;SDS011;41006;50.920;3.456;2022-07-15T05:37:16;13.95;;;9.07;;
55112;SDS011;41006;50.920;3.456;2022-07-15T05:38:45;16.08;;;8.60;;
55112;SDS011;41006;50.920;3.456;2022-07-15T05:40:28;19.05;;;9.57;;
55112;SDS011;41006;50.920;3.456;2022-07-15T05:42:02;16.45;;;8.43;;
55112;SDS011;41006;50.920;3.456;2022-07-15T05:43:31;14.38;;;8.32;;
55112;SDS011;41006;50.920;3.456;2022-07-15T05:45:00;15.52;;;7.30;;
55112;SDS011;41006;50.920;3.456;2022-07-15T05:46:29;12.70;;;7.20;;
55112;SDS011;41006;50.920;3.456;2022-07-15T05:47:58;19.27;;;8.27;;
55112;SDS011;41006;50.920;3.456;2022-07-15T05:49:27;16.17;;;8.23;;
55112;SDS011;41006;50.920;3.456;2022-07-15T05:50:58;12.25;;;7.15;;
55112;SDS011;41006;50.920;3.456;2022-07-15T05:52:27;18.83;;;8.13;;
55112;SDS011;41006;50.920;3.456;2022-07-15T05:53:56;14.75;;;7.38;;
55112;SDS011;41006;50.920;3.456;2022-07-15T05:55:27;17.42;;;6.72;;
55112;SDS011;41006;50.920;3.456;2022-07-15T05:56:56;15.07;;;7.40;;
55112;SDS011;41006;50.920;3.456;2022-07-15T05:58:28;16.58;;;7.90;;
55112;SDS011;41006;50.920;3.456;2022-07-15T05:59:59;14.73;;;7.93;;
55112;SDS011;41006;50.920;3.456;2022-07-15T06:01:30;16.13;;;6.93;;
55112;SDS011;41006;50.920;3.456;2022-07-15T06:03:00;12.50;;;7.22;;
55112;SDS011;41006;50.920;3.456;2022-07-15T06:04:32;14.90;;;6.68;;
55112;SDS011;41006;50.920;3.456;2022-07-15T06:06:03;13.88;;;6.28;;
55112;SDS011;41006;50.920;3.456;2022-07-15T06:07:32;10.52;;;6.38;;
55112;SDS011;41006;50.920;3.456;2022-07-15T06:09:02;13.80;;;6.03;;
55112;SDS011;41006;50.920;3.456;2022-07-15T06:10:32;10.25;;;5.90;;
55112;SDS011;41006;50.920;3.456;2022-07-15T06:12:06;10.32;;;6.00;;
55112;SDS011;41006;50.920;3.456;2022-07-15T06:13:35;12.05;;;6.28;;
55112;SDS011;41006;50.920;3.456;2022-07-15T06:15:04;8.73;;;4.97;;
55112;SDS011;41006;50.920;3.456;2022-07-15T06:18:07;10.23;;;5.43;;
55112;SDS011;41006;50.920;3.456;2022-07-15T06:19:38;10.65;;;4.97;;
55112;SDS011;41006;50.920;3.456;2022-07-15T06:21:10;8.70;;;4.50;;
55112;SDS011;41006;50.920;3.456;2022-07-15T06:22:42;10.68;;;5.13;;
55112;SDS011;41006;50.920;3.456;2022-07-15T06:24:11;12.07;;;5.55;;
55112;SDS011;41006;50.920;3.456;2022-07-15T06:25:41;13.45;;;4.28;;
55112;SDS011;41006;50.920;3.456;2022-07-15T06:27:09;9.93;;;4.10;;
55112;SDS011;41006;50.920;3.456;2022-07-15T06:28:38;8.50;;;3.28;;
55112;SDS011;41006;50.920;3.456;2022-07-15T06:30:10;9.75;;;3.30;;
55112;SDS011;41006;50.920;3.456;2022-07-15T06:31:41;5.40;;;3.03;;
55112;SDS011;41006;50.920;3.456;2022-07-15T06:33:10;6.50;;;3.10;;
55112;SDS011;41006;50.920;3.456;2022-07-15T06:34:39;5.72;;;2.85;;
55112;SDS011;41006;50.920;3.456;2022-07-15T06:36:08;6.73;;;3.43;;
55112;SDS011;41006;50.920;3.456;2022-07-15T06:37:40;4.00;;;2.78;;
55112;SDS011;41006;50.920;3.456;2022-07-15T06:39:11;8.67;;;2.67;;
55112;SDS011;41006;50.920;3.456;2022-07-15T06:40:44;7.35;;;2.63;;
55112;SDS011;41006;50.920;3.456;2022-07-15T06:42:13;9.05;;;2.67;;
55112;SDS011;41006;50.920;3.456;2022-07-15T06:43:43;7.38;;;2.92;;
55112;SDS011;41006;50.920;3.456;2022-07-15T06:45:17;8.45;;;2.55;;
55112;SDS011;41006;50.920;3.456;2022-07-15T06:46:46;7.07;;;3.08;;
55112;SDS011;41006;50.920;3.456;2022-07-15T06:48:17;10.37;;;2.67;;
55112;SDS011;41006;50.920;3.456;2022-07-15T06:49:46;9.68;;;2.28;;
55112;SDS011;41006;50.920;3.456;2022-07-15T06:51:15;7.47;;;2.50;;
55112;SDS011;41006;50.920;3.456;2022-07-15T06:52:45;4.57;;;1.75;;
55112;SDS011;41006;50.920;3.456;2022-07-15T06:54:14;4.32;;;1.55;;
55112;SDS011;41006;50.920;3.456;2022-07-15T06:55:46;8.02;;;2.30;;
55112;SDS011;41006;50.920;3.456;2022-07-15T06:57:15;4.95;;;3.00;;
55112;SDS011;41006;50.920;3.456;2022-07-15T06:58:49;6.28;;;2.25;;
55112;SDS011;41006;50.920;3.456;2022-07-15T07:00:20;7.43;;;2.05;;
55112;SDS011;41006;50.920;3.456;2022-07-15T07:01:49;5.35;;;1.75;;
55112;SDS011;41006;50.920;3.456;2022-07-15T07:03:23;6.85;;;1.83;;
55112;SDS011;41006;50.920;3.456;2022-07-15T07:04:54;9.75;;;1.95;;
55112;SDS011;41006;50.920;3.456;2022-07-15T07:06:26;3.47;;;1.75;;
55112;SDS011;41006;50.920;3.456;2022-07-15T07:07:55;8.05;;;1.50;;
55112;SDS011;41006;50.920;3.456;2022-07-15T07:09:26;3.83;;;1.63;;
55112;SDS011;41006;50.920;3.456;2022-07-15T07:10:56;4.63;;;1.65;;
55112;SDS011;41006;50.920;3.456;2022-07-15T07:12:25;3.72;;;1.38;;
55112;SDS011;41006;50.920;3.456;2022-07-15T07:13:59;5.15;;;1.40;;
55112;SDS011;41006;50.920;3.456;2022-07-15T07:15:31;6.82;;;1.73;;
55112;SDS011;41006;50.920;3.456;2022-07-15T07:17:02;5.03;;;2.15;;
55112;SDS011;41006;50.920;3.456;2022-07-15T07:18:32;5.00;;;1.77;;
55112;SDS011;41006;50.920;3.456;2022-07-15T07:20:01;5.22;;;1.90;;
55112;SDS011;41006;50.920;3.456;2022-07-15T07:21:33;4.35;;;1.10;;
55112;SDS011;41006;50.920;3.456;2022-07-15T07:23:07;3.45;;;1.38;;
55112;SDS011;41006;50.920;3.456;2022-07-15T07:26:07;5.75;;;1.92;;
55112;SDS011;41006;50.920;3.456;2022-07-15T07:27:37;7.18;;;1.80;;
55112;SDS011;41006;50.920;3.456;2022-07-15T07:29:12;4.93;;;1.58;;
55112;SDS011;41006;50.920;3.456;2022-07-15T07:30:41;4.88;;;1.70;;
55112;SDS011;41006;50.920;3.456;2022-07-15T07:32:10;4.15;;;1.40;;
55112;SDS011;41006;50.920;3.456;2022-07-15T07:33:39;6.15;;;1.40;;
55112;SDS011;41006;50.920;3.456;2022-07-15T07:35:10;5.00;;;1.50;;
55112;SDS011;41006;50.920;3.456;2022-07-15T07:36:39;3.67;;;1.98;;
55112;SDS011;41006;50.920;3.456;2022-07-15T07:38:09;12.07;;;1.60;;
55112;SDS011;41006;50.920;3.456;2022-07-15T07:39:37;6.18;;;1.70;;
55112;SDS011;41006;50.920;3.456;2022-07-15T07:41:07;6.35;;;1.85;;
55112;SDS011;41006;50.920;3.456;2022-07-15T07:42:38;3.67;;;1.50;;
55112;SDS011;41006;50.920;3.456;2022-07-15T07:44:07;4.78;;;1.48;;
55112;SDS011;41006;50.920;3.456;2022-07-15T07:45:40;3.20;;;1.25;;
55112;SDS011;41006;50.920;3.456;2022-07-15T07:47:10;5.50;;;1.40;;
55112;SDS011;41006;50.920;3.456;2022-07-15T07:48:47;4.93;;;1.30;;
55112;SDS011;41006;50.920;3.456;2022-07-15T07:50:18;4.90;;;1.40;;
55112;SDS011;41006;50.920;3.456;2022-07-15T07:51:47;3.33;;;1.40;;
55112;SDS011;41006;50.920;3.456;2022-07-15T07:53:19;3.75;;;1.30;;
55112;SDS011;41006;50.920;3.456;2022-07-15T07:54:48;3.50;;;1.85;;
55112;SDS011;41006;50.920;3.456;2022-07-15T07:56:20;1.50;;;1.27;;
55112;SDS011;41006;50.920;3.456;2022-07-15T07:57:51;5.05;;;1.65;;
55112;SDS011;41006;50.920;3.456;2022-07-15T07:59:23;2.67;;;0.95;;
55112;SDS011;41006;50.920;3.456;2022-07-15T08:00:53;3.25;;;1.42;;
55112;SDS011;41006;50.920;3.456;2022-07-15T08:02:24;5.28;;;1.80;;
55112;SDS011;41006;50.920;3.456;2022-07-15T08:03:57;3.60;;;1.83;;
55112;SDS011;41006;50.920;3.456;2022-07-15T08:05:30;4.57;;;1.20;;
55112;SDS011;41006;50.920;3.456;2022-07-15T08:06:59;4.47;;;2.08;;
55112;SDS011;41006;50.920;3.456;2022-07-15T08:08:39;3.33;;;1.48;;
55112;SDS011;41006;50.920;3.456;2022-07-15T08:10:11;5.88;;;1.60;;
55112;SDS011;41006;50.920;3.456;2022-07-15T08:11:41;2.55;;;0.95;;
55112;SDS011;41006;50.920;3.456;2022-07-15T08:13:10;5.68;;;1.23;;
55112;SDS011;41006;50.920;3.456;2022-07-15T08:14:41;8.18;;;1.40;;
55112;SDS011;41006;50.920;3.456;2022-07-15T08:16:13;3.83;;;1.52;;
55112;SDS011;41006;50.920;3.456;2022-07-15T08:17:43;6.28;;;1.35;;
55112;SDS011;41006;50.920;3.456;2022-07-15T08:19:16;4.63;;;0.95;;
55112;SDS011;41006;50.920;3.456;2022-07-15T08:20:48;2.70;;;1.20;;
55112;SDS011;41006;50.920;3.456;2022-07-15T08:22:17;4.78;;;1.20;;
55112;SDS011;41006;50.920;3.456;2022-07-15T08:23:50;1.75;;;0.85;;
55112;SDS011;41006;50.920;3.456;2022-07-15T08:25:19;2.63;;;0.70;;
55112;SDS011;41006;50.920;3.456;2022-07-15T08:26:56;1.33;;;0.60;;
55112;SDS011;41006;50.920;3.456;2022-07-15T08:28:31;2.97;;;1.00;;
55112;SDS011;41006;50.920;3.456;2022-07-15T08:30:00;3.00;;;0.70;;
55112;SDS011;41006;50.920;3.456;2022-07-15T08:31:30;2.85;;;0.57;;
55112;SDS011;41006;50.920;3.456;2022-07-15T08:32:59;2.65;;;0.82;;
55112;SDS011;41006;50.920;3.456;2022-07-15T08:34:28;4.03;;;0.65;;
55112;SDS011;41006;50.920;3.456;2022-07-15T08:35:59;3.60;;;0.60;;
55112;SDS011;41006;50.920;3.456;2022-07-15T08:37:31;2.83;;;0.82;;
55112;SDS011;41006;50.920;3.456;2022-07-15T08:39:02;3.00;;;1.00;;
55112;SDS011;41006;50.920;3.456;2022-07-15T08:40:31;2.00;;;0.80;;
55112;SDS011;41006;50.920;3.456;2022-07-15T08:42:06;7.80;;;1.25;;
55112;SDS011;41006;50.920;3.456;2022-07-15T08:43:37;2.33;;;0.95;;
55112;SDS011;41006;50.920;3.456;2022-07-15T08:45:09;4.75;;;1.40;;
55112;SDS011;41006;50.920;3.456;2022-07-15T08:46:47;2.17;;;1.10;;
55112;SDS011;41006;50.920;3.456;2022-07-15T08:48:25;5.45;;;1.38;;
55112;SDS011;41006;50.920;3.456;2022-07-15T08:49:59;4.85;;;1.25;;
55112;SDS011;41006;50.920;3.456;2022-07-15T08:51:29;2.20;;;1.15;;
55112;SDS011;41006;50.920;3.456;2022-07-15T08:53:05;2.63;;;1.20;;
55112;SDS011;41006;50.920;3.456;2022-07-15T08:54:36;2.58;;;0.98;;
55112;SDS011;41006;50.920;3.456;2022-07-15T08:56:05;2.50;;;0.70;;
55112;SDS011;41006;50.920;3.456;2022-07-15T08:57:40;2.20;;;1.10;;
55112;SDS011;41006;50.920;3.456;2022-07-15T08:59:10;5.28;;;1.10;;
55112;SDS011;41006;50.920;3.456;2022-07-15T09:00:44;3.90;;;1.55;;
55112;SDS011;41006;50.920;3.456;2022-07-15T09:02:15;5.63;;;1.25;;
55112;SDS011;41006;50.920;3.456;2022-07-15T09:03:49;1.63;;;0.93;;
55112;SDS011;41006;50.920;3.456;2022-07-15T09:05:37;2.42;;;1.33;;
55112;SDS011;41006;50.920;3.456;2022-07-15T09:07:14;4.18;;;1.75;;